»·PEaware :: HAWG11 KLSV-KLSV

HAWG11 :: KLSV-KLSV

FLIGHT INFORMATION

Flight Status: Arrived
Operator: Unknown
More flights by this operator :: More flights under this callsign
Pilot: Logan D. (20254)
Aircraft: FAIRCHILD A-10 THUNDERBOLT 2
(A10)
More flights by this aircraft type
Origin: KLSV Nellis AFB
United States
Destination: KLSV Nellis AFB
United States
More flights between these airports :: More routes between these airports
Route: A10 TAC W
File this flight plan on PilotEdge
Remarks: +CW /
Altitude:
(Current/Filed)
6,500ft
Speed:
(Current/Filed)
250kts
Departed: 13-Apr-20 07:40 AM
Arrived: 13-Apr-20 08:37 AM
Distance/Time
Traveled:
0nm/0:57
Distance/Time
To Go:
Arrived

Flight Plot

Page will automatically refresh every two minutes.

Flight plan parsing failed; only flown route is shown


Map Options




Map Legend


Flown Route
Filed Route
Departure Airport
Arrival Airport
Navaid (VOR, NDB)
Fix

Horizontal Profiles

Position Reports

Time Latitude Longitude Heading Altitude Ground
Speed
13-Apr-20 06:59 36.229635 -115.024495 87 1850ft 0kts
13-Apr-20 07:00 36.229635 -115.024495 87 1850ft 0kts
13-Apr-20 07:01 36.229635 -115.024495 87 1850ft 0kts
13-Apr-20 07:02 36.229635 -115.024495 87 1850ft 0kts
13-Apr-20 07:03 36.229635 -115.024495 87 1850ft 0kts
13-Apr-20 07:04 36.229635 -115.024495 87 1850ft 0kts
13-Apr-20 07:05 36.229635 -115.024495 87 1850ft 0kts
13-Apr-20 07:06 36.229635 -115.024495 87 1850ft 0kts
13-Apr-20 07:07 36.229635 -115.024495 87 1850ft 0kts
13-Apr-20 07:08 36.229635 -115.024495 87 1850ft 0kts
13-Apr-20 07:09 36.229635 -115.024495 87 1850ft 0kts
13-Apr-20 07:10 36.229635 -115.024495 87 1850ft 0kts
13-Apr-20 07:11 36.229635 -115.024495 87 1850ft 0kts
13-Apr-20 07:12 36.229635 -115.024495 87 1850ft 0kts
13-Apr-20 07:13 36.229635 -115.024495 87 1850ft 0kts
13-Apr-20 07:14 36.229635 -115.024495 87 1850ft 0kts
13-Apr-20 07:15 36.229635 -115.024495 87 1850ft 0kts
13-Apr-20 07:16 36.229635 -115.024495 87 1850ft 0kts
13-Apr-20 07:17 36.229635 -115.024495 87 1850ft 0kts
13-Apr-20 07:18 36.229635 -115.024495 87 1850ft 0kts
13-Apr-20 07:19 36.229635 -115.024495 87 1850ft 0kts
13-Apr-20 07:20 36.229635 -115.024495 87 1850ft 0kts
13-Apr-20 07:21 36.229635 -115.024495 87 1850ft 0kts
13-Apr-20 07:22 36.230148 -115.025888 291 1850ft 9kts
13-Apr-20 07:23 36.230695 -115.029135 271 1850ft 0kts
13-Apr-20 07:24 36.230695 -115.029136 271 1850ft 0kts
13-Apr-20 07:25 36.230695 -115.029136 271 1850ft 0kts
13-Apr-20 07:26 36.230695 -115.029136 271 1850ft 0kts
13-Apr-20 07:27 36.230695 -115.029136 271 1850ft 0kts
13-Apr-20 07:28 36.230707 -115.029494 270 1850ft 0kts
13-Apr-20 07:29 36.229731 -115.032747 220 1850ft 18kts
13-Apr-20 07:30 36.224585 -115.038317 220 1849ft 24kts
13-Apr-20 07:31 36.223214 -115.041680 313 1848ft 5kts
13-Apr-20 07:32 36.224441 -115.043315 324 1848ft 0kts
13-Apr-20 07:33 36.224441 -115.043315 324 1848ft 0kts
13-Apr-20 07:34 36.224441 -115.043315 324 1848ft 0kts
13-Apr-20 07:35 36.224441 -115.043315 324 1848ft 0kts
13-Apr-20 07:36 36.224441 -115.043315 324 1848ft 0kts
13-Apr-20 07:37 36.224441 -115.043315 324 1848ft 0kts
13-Apr-20 07:38 36.224723 -115.043560 323 1848ft 13kts
13-Apr-20 07:39 36.246712 -115.020452 40 2174ft 202kts
13-Apr-20 07:40 36.303439 -115.002516 318 3921ft 262kts
13-Apr-20 07:41 36.327570 -115.080509 287 4368ft 264kts
13-Apr-20 07:42 36.352553 -115.171108 288 4575ft 283kts
13-Apr-20 07:43 36.376479 -115.256306 288 4567ft 255kts
13-Apr-20 07:44 36.410357 -115.334544 321 5174ft 275kts
13-Apr-20 07:45 36.483587 -115.359776 351 7467ft 256kts
13-Apr-20 07:46 36.552183 -115.371304 351 10561ft 234kts
13-Apr-20 07:47 36.608105 -115.426380 303 10564ft 310kts
13-Apr-20 07:48 36.677519 -115.451093 11 8558ft 247kts
13-Apr-20 07:49 36.718156 -115.490568 271 8264ft 246kts
13-Apr-20 07:50 36.720550 -115.578985 270 9821ft 267kts
13-Apr-20 07:51 36.722723 -115.673552 276 11538ft 277kts
13-Apr-20 07:52 36.777931 -115.723938 356 13695ft 257kts
13-Apr-20 07:53 36.849770 -115.742104 298 14625ft 283kts
13-Apr-20 07:55 36.807654 -115.809565 187 14606ft 309kts
13-Apr-20 07:56 36.718906 -115.816762 171 14393ft 318kts
13-Apr-20 07:57 36.707596 -115.731717 29 14105ft 317kts
13-Apr-20 07:58 36.792953 -115.709316 8 14132ft 318kts
13-Apr-20 07:59 36.878221 -115.705674 312 14089ft 318kts
13-Apr-20 08:00 36.856444 -115.790930 215 15444ft 295kts
13-Apr-20 08:01 36.775516 -115.815156 175 15656ft 311kts
13-Apr-20 08:02 36.700418 -115.770275 110 15614ft 315kts
13-Apr-20 08:03 36.730774 -115.692319 12 15622ft 315kts
13-Apr-20 08:04 36.789113 -115.751922 263 15622ft 315kts
13-Apr-20 08:05 36.732205 -115.821494 279 14821ft 308kts
13-Apr-20 08:06 36.800091 -115.862193 46 13592ft 298kts
13-Apr-20 08:07 36.789486 -115.765964 174 10834ft 373kts
13-Apr-20 08:08 36.801418 -115.840060 16 9523ft 324kts
13-Apr-20 08:09 36.802931 -115.755389 179 9541ft 290kts
13-Apr-20 08:10 36.803721 -115.835740 341 8946ft 320kts
13-Apr-20 08:11 36.816546 -115.759766 141 9538ft 318kts
13-Apr-20 08:12 36.783454 -115.810406 318 7893ft 358kts
13-Apr-20 08:13 36.836262 -115.839713 98 7403ft 312kts
13-Apr-20 08:13 36.804607 -115.759828 120 8145ft 318kts
13-Apr-20 08:15 36.764288 -115.808356 295 7702ft 342kts
13-Apr-20 08:16 36.796577 -115.793334 137 7892ft 276kts
13-Apr-20 08:16 36.758144 -115.740185 143 9792ft 277kts
13-Apr-20 08:17 36.687876 -115.679621 144 9648ft 310kts
13-Apr-20 08:19 36.604736 -115.608884 144 9648ft 310kts
13-Apr-20 08:19 36.545208 -115.558364 144 9648ft 310kts
13-Apr-20 08:20 36.484067 -115.506922 145 9644ft 223kts
13-Apr-20 08:21 36.435623 -115.500255 261 9012ft 197kts
13-Apr-20 08:22 36.475338 -115.530803 305 7756ft 200kts
13-Apr-20 08:23 36.441620 -115.554904 110 7501ft 234kts
13-Apr-20 08:24 36.463589 -115.488858 69 8078ft 179kts
13-Apr-20 08:25 36.432683 -115.421754 117 5878ft 278kts
13-Apr-20 08:26 36.400991 -115.354701 119 5503ft 196kts
13-Apr-20 08:27 36.372244 -115.294838 119 5509ft 224kts
13-Apr-20 08:28 36.341174 -115.230493 119 5498ft 191kts
13-Apr-20 08:29 36.355932 -115.191285 316 5463ft 204kts
13-Apr-20 08:30 36.334500 -115.196095 103 5769ft 205kts
13-Apr-20 08:31 36.321010 -115.117214 98 6078ft 254kts
13-Apr-20 08:32 36.314296 -115.033317 94 5286ft 216kts
13-Apr-20 08:33 36.288287 -114.982821 170 3951ft 168kts
13-Apr-20 08:34 36.257185 -115.013617 220 2354ft 130kts
13-Apr-20 08:35 36.235823 -115.036789 212 1857ft 44kts
13-Apr-20 08:36 36.235308 -115.041660 216 1858ft 0kts
13-Apr-20 08:37 36.235302 -115.041667 221 1858ft 0kts

Navigation Log

Ident Type
Flight plan parsing failed, navigation log unavailable